sensor_id;sensor_type;location;lat;lon;timestamp;P1;durP1;ratioP1;P2;durP2;ratioP2
7211;SDS011;3647;48.792;9.802;2023-04-01T05:18:37;1.60;;;1.50;;
7211;SDS011;3647;48.792;9.802;2023-04-01T05:21:03;1.50;;;1.20;;
7211;SDS011;3647;48.792;9.802;2023-04-01T05:23:32;1.60;;;1.50;;
7211;SDS011;3647;48.792;9.802;2023-04-01T05:26:02;1.20;;;1.20;;
7211;SDS011;3647;48.792;9.802;2023-04-01T05:28:29;2.17;;;1.80;;
7211;SDS011;3647;48.792;9.802;2023-04-01T05:30:57;2.50;;;1.47;;
7211;SDS011;3647;48.792;9.802;2023-04-01T05:33:24;1.60;;;1.40;;
7211;SDS011;3647;48.792;9.802;2023-04-01T05:35:53;2.43;;;1.67;;
7211;SDS011;3647;48.792;9.802;2023-04-01T05:38:20;2.50;;;1.23;;
7211;SDS011;3647;48.792;9.802;2023-04-01T05:40:47;1.50;;;1.40;;
7211;SDS011;3647;48.792;9.802;2023-04-01T05:43:14;2.40;;;1.67;;
7211;SDS011;3647;48.792;9.802;2023-04-01T05:45:40;1.77;;;1.43;;
7211;SDS011;3647;48.792;9.802;2023-04-01T05:48:07;1.90;;;1.80;;
7211;SDS011;3647;48.792;9.802;2023-04-01T05:50:34;1.43;;;1.37;;
7211;SDS011;3647;48.792;9.802;2023-04-01T05:53:02;1.37;;;1.27;;
7211;SDS011;3647;48.792;9.802;2023-04-01T05:55:29;2.47;;;1.20;;
7211;SDS011;3647;48.792;9.802;2023-04-01T05:57:56;1.40;;;1.30;;
7211;SDS011;3647;48.792;9.802;2023-04-01T06:00:23;1.93;;;1.20;;
7211;SDS011;3647;48.792;9.802;2023-04-01T06:02:50;1.80;;;1.37;;
7211;SDS011;3647;48.792;9.802;2023-04-01T06:05:17;1.73;;;1.63;;
7211;SDS011;3647;48.792;9.802;2023-04-01T06:07:46;1.40;;;1.30;;
7211;SDS011;3647;48.792;9.802;2023-04-01T06:10:15;1.47;;;1.30;;
7211;SDS011;3647;48.792;9.802;2023-04-01T06:12:51;1.30;;;1.20;;
7211;SDS011;3647;48.792;9.802;2023-04-01T06:15:28;3.20;;;1.40;;
7211;SDS011;3647;48.792;9.802;2023-04-01T06:18:11;2.73;;;1.10;;
7211;SDS011;3647;48.792;9.802;2023-04-01T06:21:04;1.60;;;1.50;;
7211;SDS011;3647;48.792;9.802;2023-04-01T06:23:42;2.50;;;1.30;;
7211;SDS011;3647;48.792;9.802;2023-04-01T06:26:25;1.17;;;1.10;;
7211;SDS011;3647;48.792;9.802;2023-04-01T06:29:07;1.93;;;1.10;;
7211;SDS011;3647;48.792;9.802;2023-04-01T06:32:04;1.30;;;1.20;;
7211;SDS011;3647;48.792;9.802;2023-04-01T06:35:11;1.40;;;1.30;;
7211;SDS011;3647;48.792;9.802;2023-04-01T06:37:52;1.27;;;1.23;;
7211;SDS011;3647;48.792;9.802;2023-04-01T06:40:38;1.20;;;1.20;;
7211;SDS011;3647;48.792;9.802;2023-04-01T06:43:23;1.30;;;1.20;;
7211;SDS011;3647;48.792;9.802;2023-04-01T06:46:00;1.37;;;1.30;;
7211;SDS011;3647;48.792;9.802;2023-04-01T06:48:39;1.57;;;1.00;;
7211;SDS011;3647;48.792;9.802;2023-04-01T06:51:17;2.10;;;1.30;;
7211;SDS011;3647;48.792;9.802;2023-04-01T06:53:54;1.30;;;1.30;;
7211;SDS011;3647;48.792;9.802;2023-04-01T06:56:24;1.13;;;1.13;;
7211;SDS011;3647;48.792;9.802;2023-04-01T06:58:55;1.93;;;1.20;;
7211;SDS011;3647;48.792;9.802;2023-04-01T07:01:25;3.60;;;1.93;;
7211;SDS011;3647;48.792;9.802;2023-04-01T07:03:57;1.20;;;1.10;;
7211;SDS011;3647;48.792;9.802;2023-04-01T07:06:28;1.90;;;1.20;;
7211;SDS011;3647;48.792;9.802;2023-04-01T07:08:58;1.27;;;1.17;;
7211;SDS011;3647;48.792;9.802;2023-04-01T07:11:31;2.23;;;1.10;;
7211;SDS011;3647;48.792;9.802;2023-04-01T07:14:01;1.20;;;1.20;;
7211;SDS011;3647;48.792;9.802;2023-04-01T07:16:33;2.30;;;1.13;;
7211;SDS011;3647;48.792;9.802;2023-04-01T07:19:04;1.70;;;1.20;;
7211;SDS011;3647;48.792;9.802;2023-04-01T07:21:40;1.70;;;1.30;;
7211;SDS011;3647;48.792;9.802;2023-04-01T07:24:14;1.63;;;1.20;;
7211;SDS011;3647;48.792;9.802;2023-04-01T07:26:54;1.10;;;1.10;;
7211;SDS011;3647;48.792;9.802;2023-04-01T07:29:23;1.40;;;1.30;;
7211;SDS011;3647;48.792;9.802;2023-04-01T07:31:56;2.00;;;1.40;;
7211;SDS011;3647;48.792;9.802;2023-04-01T07:34:36;1.20;;;1.20;;
7211;SDS011;3647;48.792;9.802;2023-04-01T07:37:10;1.63;;;1.30;;
7211;SDS011;3647;48.792;9.802;2023-04-01T07:39:43;1.10;;;1.10;;
7211;SDS011;3647;48.792;9.802;2023-04-01T07:42:20;0.93;;;0.93;;
7211;SDS011;3647;48.792;9.802;2023-04-01T07:45:01;1.40;;;1.30;;
7211;SDS011;3647;48.792;9.802;2023-04-01T07:47:41;1.87;;;1.30;;
7211;SDS011;3647;48.792;9.802;2023-04-01T07:50:21;1.17;;;1.10;;
7211;SDS011;3647;48.792;9.802;2023-04-01T07:52:55;1.10;;;1.07;;
7211;SDS011;3647;48.792;9.802;2023-04-01T07:55:30;1.43;;;1.10;;
7211;SDS011;3647;48.792;9.802;2023-04-01T07:58:06;1.47;;;1.37;;
7211;SDS011;3647;48.792;9.802;2023-04-01T08:00:42;1.70;;;1.60;;
7211;SDS011;3647;48.792;9.802;2023-04-01T08:03:21;1.77;;;1.30;;
7211;SDS011;3647;48.792;9.802;2023-04-01T08:06:03;1.30;;;1.10;;
7211;SDS011;3647;48.792;9.802;2023-04-01T08:08:40;1.87;;;1.20;;
7211;SDS011;3647;48.792;9.802;2023-04-01T08:11:17;3.00;;;1.77;;
7211;SDS011;3647;48.792;9.802;2023-04-01T08:13:57;4.23;;;1.60;;
7211;SDS011;3647;48.792;9.802;2023-04-01T08:16:31;1.10;;;1.10;;
7211;SDS011;3647;48.792;9.802;2023-04-01T08:19:07;1.83;;;1.60;;
7211;SDS011;3647;48.792;9.802;2023-04-01T08:21:45;1.97;;;1.50;;
7211;SDS011;3647;48.792;9.802;2023-04-01T08:24:17;1.07;;;1.00;;
7211;SDS011;3647;48.792;9.802;2023-04-01T08:26:49;1.07;;;1.07;;
7211;SDS011;3647;48.792;9.802;2023-04-01T08:29:20;2.57;;;1.37;;
7211;SDS011;3647;48.792;9.802;2023-04-01T08:31:51;1.80;;;1.20;;
7211;SDS011;3647;48.792;9.802;2023-04-01T08:34:24;1.20;;;1.10;;
7211;SDS011;3647;48.792;9.802;2023-04-01T08:36:57;1.67;;;1.00;;
7211;SDS011;3647;48.792;9.802;2023-04-01T08:39:29;1.43;;;1.30;;
7211;SDS011;3647;48.792;9.802;2023-04-01T08:45:10;1.50;;;1.40;;
7211;SDS011;3647;48.792;9.802;2023-04-01T08:48:06;1.50;;;1.40;;
7211;SDS011;3647;48.792;9.802;2023-04-01T08:51:08;1.27;;;1.27;;
7211;SDS011;3647;48.792;9.802;2023-04-01T08:54:04;1.17;;;1.17;;
7211;SDS011;3647;48.792;9.802;2023-04-01T08:56:42;1.10;;;1.10;;
7211;SDS011;3647;48.792;9.802;2023-04-01T09:02:16;3.30;;;1.80;;
7211;SDS011;3647;48.792;9.802;2023-04-01T09:05:20;1.07;;;1.07;;
7211;SDS011;3647;48.792;9.802;2023-04-01T09:08:14;1.10;;;1.10;;
7211;SDS011;3647;48.792;9.802;2023-04-01T09:10:56;1.43;;;1.07;;
7211;SDS011;3647;48.792;9.802;2023-04-01T09:16:46;2.30;;;1.13;;
7211;SDS011;3647;48.792;9.802;2023-04-01T09:19:33;1.30;;;1.20;;
7211;SDS011;3647;48.792;9.802;2023-04-01T09:22:23;1.10;;;1.10;;
7211;SDS011;3647;48.792;9.802;2023-04-01T09:25:12;1.13;;;1.13;;
7211;SDS011;3647;48.792;9.802;2023-04-01T09:27:52;3.20;;;1.10;;
7211;SDS011;3647;48.792;9.802;2023-04-01T09:33:28;1.80;;;1.10;;
7211;SDS011;3647;48.792;9.802;2023-04-01T09:36:38;1.17;;;1.10;;
7211;SDS011;3647;48.792;9.802;2023-04-01T09:39:21;1.87;;;1.17;;
7211;SDS011;3647;48.792;9.802;2023-04-01T09:45:09;1.43;;;1.33;;
7211;SDS011;3647;48.792;9.802;2023-04-01T09:47:45;1.77;;;1.67;;
7211;SDS011;3647;48.792;9.802;2023-04-01T09:53:25;1.20;;;1.20;;
7211;SDS011;3647;48.792;9.802;2023-04-01T09:56:21;2.00;;;1.37;;
7211;SDS011;3647;48.792;9.802;2023-04-01T09:59:15;1.20;;;1.20;;
7211;SDS011;3647;48.792;9.802;2023-04-01T10:02:09;1.00;;;1.00;;
7211;SDS011;3647;48.792;9.802;2023-04-01T10:05:13;1.20;;;1.10;;
7211;SDS011;3647;48.792;9.802;2023-04-01T10:08:14;1.73;;;1.20;;
7211;SDS011;3647;48.792;9.802;2023-04-01T10:11:07;1.10;;;1.10;;
7211;SDS011;3647;48.792;9.802;2023-04-01T10:14:00;1.50;;;1.40;;
7211;SDS011;3647;48.792;9.802;2023-04-01T10:16:59;1.30;;;1.20;;
7211;SDS011;3647;48.792;9.802;2023-04-01T10:19:42;1.60;;;1.43;;
7211;SDS011;3647;48.792;9.802;2023-04-01T10:22:58;1.07;;;0.93;;
7211;SDS011;3647;48.792;9.802;2023-04-01T10:28:53;1.37;;;1.10;;
7211;SDS011;3647;48.792;9.802;2023-04-01T10:41:16;1.10;;;1.10;;
7211;SDS011;3647;48.792;9.802;2023-04-01T10:44:20;1.20;;;1.20;;
7211;SDS011;3647;48.792;9.802;2023-04-01T10:47:13;1.00;;;1.00;;
7211;SDS011;3647;48.792;9.802;2023-04-01T10:53:07;1.77;;;1.17;;
7211;SDS011;3647;48.792;9.802;2023-04-01T10:56:10;1.30;;;1.30;;
7211;SDS011;3647;48.792;9.802;2023-04-01T11:05:34;1.33;;;1.30;;
7211;SDS011;3647;48.792;9.802;2023-04-01T11:11:26;1.23;;;1.20;;
7211;SDS011;3647;48.792;9.802;2023-04-01T11:14:24;1.00;;;1.00;;
7211;SDS011;3647;48.792;9.802;2023-04-01T11:17:22;1.30;;;1.20;;
7211;SDS011;3647;48.792;9.802;2023-04-01T11:20:13;1.40;;;1.30;;
7211;SDS011;3647;48.792;9.802;2023-04-01T11:23:15;1.10;;;1.10;;
7211;SDS011;3647;48.792;9.802;2023-04-01T11:25:56;1.13;;;1.13;;
7211;SDS011;3647;48.792;9.802;2023-04-01T11:34:21;1.00;;;1.00;;
7211;SDS011;3647;48.792;9.802;2023-04-01T11:37:10;1.30;;;1.20;;
7211;SDS011;3647;48.792;9.802;2023-04-01T11:39:55;1.50;;;1.40;;
7211;SDS011;3647;48.792;9.802;2023-04-01T11:42:34;1.37;;;1.27;;
7211;SDS011;3647;48.792;9.802;2023-04-01T11:45:11;1.07;;;1.00;;
7211;SDS011;3647;48.792;9.802;2023-04-01T11:47:54;1.20;;;1.10;;
7211;SDS011;3647;48.792;9.802;2023-04-01T11:50:37;1.00;;;1.00;;
7211;SDS011;3647;48.792;9.802;2023-04-01T11:53:21;1.20;;;1.20;;
7211;SDS011;3647;48.792;9.802;2023-04-01T11:55:56;1.10;;;1.00;;
7211;SDS011;3647;48.792;9.802;2023-04-01T12:01:33;1.40;;;1.40;;
7211;SDS011;3647;48.792;9.802;2023-04-01T12:04:42;2.43;;;1.20;;
7211;SDS011;3647;48.792;9.802;2023-04-01T12:07:25;1.10;;;1.10;;
7211;SDS011;3647;48.792;9.802;2023-04-01T12:10:05;1.60;;;1.00;;
7211;SDS011;3647;48.792;9.802;2023-04-01T12:12:45;1.27;;;1.20;;
7211;SDS011;3647;48.792;9.802;2023-04-01T12:15:22;1.20;;;1.10;;
7211;SDS011;3647;48.792;9.802;2023-04-01T12:17:56;1.20;;;1.20;;
7211;SDS011;3647;48.792;9.802;2023-04-01T12:20:41;1.30;;;1.30;;
7211;SDS011;3647;48.792;9.802;2023-04-01T12:23:19;1.00;;;1.00;;
7211;SDS011;3647;48.792;9.802;2023-04-01T12:26:15;1.30;;;1.20;;
7211;SDS011;3647;48.792;9.802;2023-04-01T12:29:07;1.03;;;1.03;;
7211;SDS011;3647;48.792;9.802;2023-04-01T12:31:42;1.10;;;1.10;;
7211;SDS011;3647;48.792;9.802;2023-04-01T12:34:40;1.30;;;1.20;;
7211;SDS011;3647;48.792;9.802;2023-04-01T12:37:31;1.90;;;1.20;;
7211;SDS011;3647;48.792;9.802;2023-04-01T12:40:20;1.53;;;1.23;;
7211;SDS011;3647;48.792;9.802;2023-04-01T12:42:57;1.20;;;1.20;;
7211;SDS011;3647;48.792;9.802;2023-04-01T12:45:39;2.37;;;1.30;;
7211;SDS011;3647;48.792;9.802;2023-04-01T12:48:19;1.13;;;1.13;;
7211;SDS011;3647;48.792;9.802;2023-04-01T12:54:32;1.40;;;1.30;;
7211;SDS011;3647;48.792;9.802;2023-04-01T12:57:20;1.10;;;1.10;;
7211;SDS011;3647;48.792;9.802;2023-04-01T13:00:03;1.73;;;1.30;;
7211;SDS011;3647;48.792;9.802;2023-04-01T13:02:48;1.10;;;1.10;;
7211;SDS011;3647;48.792;9.802;2023-04-01T13:05:39;1.53;;;1.10;;
7211;SDS011;3647;48.792;9.802;2023-04-01T13:08:27;1.13;;;1.13;;
7211;SDS011;3647;48.792;9.802;2023-04-01T13:11:13;0.90;;;0.90;;
7211;SDS011;3647;48.792;9.802;2023-04-01T13:13:58;1.37;;;1.10;;
7211;SDS011;3647;48.792;9.802;2023-04-01T13:16:45;4.37;;;1.20;;
7211;SDS011;3647;48.792;9.802;2023-04-01T13:19:21;1.07;;;1.07;;
7211;SDS011;3647;48.792;9.802;2023-04-01T13:21:57;1.10;;;1.10;;
7211;SDS011;3647;48.792;9.802;2023-04-01T13:24:43;1.10;;;1.10;;
7211;SDS011;3647;48.792;9.802;2023-04-01T13:27:18;1.83;;;1.10;;
7211;SDS011;3647;48.792;9.802;2023-04-01T13:29:57;0.90;;;0.90;;
7211;SDS011;3647;48.792;9.802;2023-04-01T13:32:32;1.10;;;1.10;;
7211;SDS011;3647;48.792;9.802;2023-04-01T13:35:10;3.17;;;1.30;;
7211;SDS011;3647;48.792;9.802;2023-04-01T13:37:52;1.60;;;1.10;;
7211;SDS011;3647;48.792;9.802;2023-04-01T13:43:18;1.13;;;1.13;;
7211;SDS011;3647;48.792;9.802;2023-04-01T13:48:58;1.77;;;1.10;;
7211;SDS011;3647;48.792;9.802;2023-04-01T13:54:50;2.67;;;1.30;;
7211;SDS011;3647;48.792;9.802;2023-04-01T13:57:40;1.47;;;1.37;;
7211;SDS011;3647;48.792;9.802;2023-04-01T14:00:24;1.27;;;1.17;;
7211;SDS011;3647;48.792;9.802;2023-04-01T14:14:13;1.20;;;1.20;;
7211;SDS011;3647;48.792;9.802;2023-04-01T14:22:22;1.30;;;1.20;;
7211;SDS011;3647;48.792;9.802;2023-04-01T14:28:00;2.50;;;1.00;;
7211;SDS011;3647;48.792;9.802;2023-04-01T14:30:41;1.10;;;1.10;;
7211;SDS011;3647;48.792;9.802;2023-04-01T14:36:13;3.60;;;1.47;;
7211;SDS011;3647;48.792;9.802;2023-04-01T14:39:03;1.80;;;1.70;;
7211;SDS011;3647;48.792;9.802;2023-04-01T14:41:43;1.80;;;1.70;;
7211;SDS011;3647;48.792;9.802;2023-04-01T14:47:33;1.30;;;1.20;;
7211;SDS011;3647;48.792;9.802;2023-04-01T14:50:11;1.60;;;1.30;;
7211;SDS011;3647;48.792;9.802;2023-04-01T14:52:42;1.70;;;1.60;;
7211;SDS011;3647;48.792;9.802;2023-04-01T14:55:21;5.37;;;2.40;;
7211;SDS011;3647;48.792;9.802;2023-04-01T14:57:59;1.57;;;1.47;;
7211;SDS011;3647;48.792;9.802;2023-04-01T15:00:39;1.30;;;1.30;;
7211;SDS011;3647;48.792;9.802;2023-04-01T15:03:14;1.67;;;1.20;;
7211;SDS011;3647;48.792;9.802;2023-04-01T15:05:49;1.10;;;1.07;;
7211;SDS011;3647;48.792;9.802;2023-04-01T15:08:21;1.00;;;1.00;;
7211;SDS011;3647;48.792;9.802;2023-04-01T15:11:05;1.40;;;1.30;;
7211;SDS011;3647;48.792;9.802;2023-04-01T15:14:08;1.40;;;1.30;;
7211;SDS011;3647;48.792;9.802;2023-04-01T15:17:14;1.20;;;1.20;;
7211;SDS011;3647;48.792;9.802;2023-04-01T15:19:56;1.50;;;1.40;;
7211;SDS011;3647;48.792;9.802;2023-04-01T15:22:49;1.23;;;1.23;;
7211;SDS011;3647;48.792;9.802;2023-04-01T15:25:35;1.40;;;1.30;;
7211;SDS011;3647;48.792;9.802;2023-04-01T15:28:15;2.33;;;1.57;;
7211;SDS011;3647;48.792;9.802;2023-04-01T15:30:52;1.23;;;1.23;;
7211;SDS011;3647;48.792;9.802;2023-04-01T15:33:25;1.47;;;1.40;;
7211;SDS011;3647;48.792;9.802;2023-04-01T15:36:07;2.20;;;1.30;;
7211;SDS011;3647;48.792;9.802;2023-04-01T15:38:47;1.43;;;1.33;;
7211;SDS011;3647;48.792;9.802;2023-04-01T15:41:19;1.37;;;1.27;;
7211;SDS011;3647;48.792;9.802;2023-04-01T15:43:55;1.23;;;1.20;;
7211;SDS011;3647;48.792;9.802;2023-04-01T15:46:36;1.70;;;1.60;;
7211;SDS011;3647;48.792;9.802;2023-04-01T15:49:12;1.70;;;1.40;;
7211;SDS011;3647;48.792;9.802;2023-04-01T15:51:48;1.50;;;1.40;;
7211;SDS011;3647;48.792;9.802;2023-04-01T15:54:38;2.13;;;1.80;;
7211;SDS011;3647;48.792;9.802;2023-04-01T15:57:25;1.20;;;1.20;;
7211;SDS011;3647;48.792;9.802;2023-04-01T16:00:11;3.53;;;2.33;;
7211;SDS011;3647;48.792;9.802;2023-04-01T16:02:53;2.37;;;2.17;;
7211;SDS011;3647;48.792;9.802;2023-04-01T16:05:42;7.13;;;6.43;;
7211;SDS011;3647;48.792;9.802;2023-04-01T16:08:23;3.73;;;3.30;;
7211;SDS011;3647;48.792;9.802;2023-04-01T16:11:09;2.63;;;2.43;;
7211;SDS011;3647;48.792;9.802;2023-04-01T16:13:46;2.40;;;2.20;;
7211;SDS011;3647;48.792;9.802;2023-04-01T16:16:25;1.83;;;1.73;;
7211;SDS011;3647;48.792;9.802;2023-04-01T16:19:06;1.70;;;1.60;;
7211;SDS011;3647;48.792;9.802;2023-04-01T16:21:58;1.30;;;1.20;;
7211;SDS011;3647;48.792;9.802;2023-04-01T16:24:31;1.90;;;1.80;;
7211;SDS011;3647;48.792;9.802;2023-04-01T16:27:02;1.40;;;1.30;;
7211;SDS011;3647;48.792;9.802;2023-04-01T16:29:37;1.80;;;1.70;;
7211;SDS011;3647;48.792;9.802;2023-04-01T16:32:17;1.70;;;1.60;;
7211;SDS011;3647;48.792;9.802;2023-04-01T16:34:55;2.40;;;1.80;;
7211;SDS011;3647;48.792;9.802;2023-04-01T16:37:32;9.90;;;8.30;;
7211;SDS011;3647;48.792;9.802;2023-04-01T16:40:10;3.20;;;2.50;;
7211;SDS011;3647;48.792;9.802;2023-04-01T16:42:43;2.33;;;2.13;;
7211;SDS011;3647;48.792;9.802;2023-04-01T16:45:19;1.67;;;1.57;;
7211;SDS011;3647;48.792;9.802;2023-04-01T16:47:55;2.67;;;2.43;;
7211;SDS011;3647;48.792;9.802;2023-04-01T16:50:25;2.63;;;2.00;;
7211;SDS011;3647;48.792;9.802;2023-04-01T16:53:00;2.47;;;2.27;;
7211;SDS011;3647;48.792;9.802;2023-04-01T16:55:42;2.10;;;2.00;;
7211;SDS011;3647;48.792;9.802;2023-04-01T16:58:15;1.63;;;1.53;;
7211;SDS011;3647;48.792;9.802;2023-04-01T17:00:50;1.87;;;1.77;;
7211;SDS011;3647;48.792;9.802;2023-04-01T17:03:25;2.10;;;2.00;;
7211;SDS011;3647;48.792;9.802;2023-04-01T17:05:59;2.20;;;1.90;;
7211;SDS011;3647;48.792;9.802;2023-04-01T17:08:51;3.30;;;2.00;;
7211;SDS011;3647;48.792;9.802;2023-04-01T17:11:30;1.57;;;1.50;;
7211;SDS011;3647;48.792;9.802;2023-04-01T17:14:04;2.43;;;1.80;;
7211;SDS011;3647;48.792;9.802;2023-04-01T17:16:46;3.00;;;2.23;;
7211;SDS011;3647;48.792;9.802;2023-04-01T17:19:37;1.80;;;1.70;;
7211;SDS011;3647;48.792;9.802;2023-04-01T17:22:31;2.50;;;2.30;;
7211;SDS011;3647;48.792;9.802;2023-04-01T17:25:08;2.63;;;1.80;;
7211;SDS011;3647;48.792;9.802;2023-04-01T17:27:48;2.13;;;1.73;;
7211;SDS011;3647;48.792;9.802;2023-04-01T17:30:26;2.73;;;1.80;;
7211;SDS011;3647;48.792;9.802;2023-04-01T17:35:34;2.27;;;1.80;;
7211;SDS011;3647;48.792;9.802;2023-04-01T17:38:07;2.23;;;1.67;;
7211;SDS011;3647;48.792;9.802;2023-04-01T17:40:46;1.80;;;1.70;;
7211;SDS011;3647;48.792;9.802;2023-04-01T17:43:22;2.07;;;1.93;;
7211;SDS011;3647;48.792;9.802;2023-04-01T17:46:01;2.10;;;1.83;;
7211;SDS011;3647;48.792;9.802;2023-04-01T17:48:38;3.23;;;2.03;;
7211;SDS011;3647;48.792;9.802;2023-04-01T17:51:17;4.10;;;1.90;;
7211;SDS011;3647;48.792;9.802;2023-04-01T17:53:53;1.80;;;1.70;;
7211;SDS011;3647;48.792;9.802;2023-04-01T17:56:30;1.87;;;1.60;;
7211;SDS011;3647;48.792;9.802;2023-04-01T17:59:07;1.43;;;1.33;;
7211;SDS011;3647;48.792;9.802;2023-04-01T18:01:46;1.53;;;1.43;;
7211;SDS011;3647;48.792;9.802;2023-04-01T18:04:37;1.40;;;1.30;;
7211;SDS011;3647;48.792;9.802;2023-04-01T18:07:23;1.80;;;1.60;;
7211;SDS011;3647;48.792;9.802;2023-04-01T18:10:08;1.73;;;1.63;;
7211;SDS011;3647;48.792;9.802;2023-04-01T18:12:45;1.60;;;1.50;;
7211;SDS011;3647;48.792;9.802;2023-04-01T18:15:31;1.50;;;1.40;;
7211;SDS011;3647;48.792;9.802;2023-04-01T18:18:10;1.70;;;1.60;;
7211;SDS011;3647;48.792;9.802;2023-04-01T18:20:58;1.73;;;1.63;;
7211;SDS011;3647;48.792;9.802;2023-04-01T18:23:38;1.77;;;1.67;;
7211;SDS011;3647;48.792;9.802;2023-04-01T18:26:10;2.97;;;1.50;;
7211;SDS011;3647;48.792;9.802;2023-04-01T18:28:41;12.17;;;7.27;;
7211;SDS011;3647;48.792;9.802;2023-04-01T18:31:15;16.37;;;10.60;;
7211;SDS011;3647;48.792;9.802;2023-04-01T18:33:47;6.57;;;5.47;;
7211;SDS011;3647;48.792;9.802;2023-04-01T18:36:22;3.70;;;3.40;;
7211;SDS011;3647;48.792;9.802;2023-04-01T18:39:07;3.43;;;2.80;;
7211;SDS011;3647;48.792;9.802;2023-04-01T18:41:40;3.03;;;2.77;;
7211;SDS011;3647;48.792;9.802;2023-04-01T18:44:19;3.60;;;3.30;;
7211;SDS011;3647;48.792;9.802;2023-04-01T18:46:55;3.67;;;3.10;;
7211;SDS011;3647;48.792;9.802;2023-04-01T18:49:33;3.67;;;3.37;;
7211;SDS011;3647;48.792;9.802;2023-04-01T18:52:10;4.07;;;3.43;;
7211;SDS011;3647;48.792;9.802;2023-04-01T18:54:47;4.07;;;3.20;;
7211;SDS011;3647;48.792;9.802;2023-04-01T18:57:39;4.73;;;3.57;;
7211;SDS011;3647;48.792;9.802;2023-04-01T19:00:13;4.10;;;3.03;;
7211;SDS011;3647;48.792;9.802;2023-04-01T19:02:48;4.63;;;3.30;;
7211;SDS011;3647;48.792;9.802;2023-04-01T19:05:24;3.40;;;2.83;;
7211;SDS011;3647;48.792;9.802;2023-04-01T19:07:56;4.17;;;2.47;;
7211;SDS011;3647;48.792;9.802;2023-04-01T19:10:43;3.70;;;2.50;;
7211;SDS011;3647;48.792;9.802;2023-04-01T19:13:19;2.50;;;2.30;;
7211;SDS011;3647;48.792;9.802;2023-04-01T19:15:52;2.83;;;2.20;;
7211;SDS011;3647;48.792;9.802;2023-04-01T19:18:38;1.83;;;1.73;;
7211;SDS011;3647;48.792;9.802;2023-04-01T19:21:15;2.67;;;1.80;;
7211;SDS011;3647;48.792;9.802;2023-04-01T19:26:49;3.97;;;1.80;;
7211;SDS011;3647;48.792;9.802;2023-04-01T19:29:26;2.60;;;1.60;;
7211;SDS011;3647;48.792;9.802;2023-04-01T19:32:04;3.20;;;1.50;;
7211;SDS011;3647;48.792;9.802;2023-04-01T19:34:45;2.70;;;1.57;;
7211;SDS011;3647;48.792;9.802;2023-04-01T19:37:22;1.90;;;1.80;;
7211;SDS011;3647;48.792;9.802;2023-04-01T19:40:00;2.03;;;1.83;;
7211;SDS011;3647;48.792;9.802;2023-04-01T19:42:39;3.83;;;2.40;;
7211;SDS011;3647;48.792;9.802;2023-04-01T19:45:20;2.57;;;2.33;;
7211;SDS011;3647;48.792;9.802;2023-04-01T19:47:57;3.60;;;2.67;;
7211;SDS011;3647;48.792;9.802;2023-04-01T19:50:30;3.83;;;2.60;;
7211;SDS011;3647;48.792;9.802;2023-04-01T19:53:04;2.30;;;2.03;;
7211;SDS011;3647;48.792;9.802;2023-04-01T19:55:39;3.17;;;2.00;;
7211;SDS011;3647;48.792;9.802;2023-04-01T19:58:14;2.20;;;2.00;;
7211;SDS011;3647;48.792;9.802;2023-04-01T20:00:47;2.10;;;1.90;;
7211;SDS011;3647;48.792;9.802;2023-04-01T20:03:23;2.10;;;1.73;;
7211;SDS011;3647;48.792;9.802;2023-04-01T20:06:01;2.33;;;1.60;;
7211;SDS011;3647;48.792;9.802;2023-04-01T20:08:33;3.37;;;1.83;;
7211;SDS011;3647;48.792;9.802;2023-04-01T20:11:08;2.13;;;1.90;;
7211;SDS011;3647;48.792;9.802;2023-04-01T20:13:50;3.57;;;2.13;;
7211;SDS011;3647;48.792;9.802;2023-04-01T20:16:34;2.00;;;1.90;;
7211;SDS011;3647;48.792;9.802;2023-04-01T20:19:13;2.50;;;2.30;;
7211;SDS011;3647;48.792;9.802;2023-04-01T20:21:52;5.00;;;1.70;;
7211;SDS011;3647;48.792;9.802;2023-04-01T20:24:26;1.80;;;1.70;;
7211;SDS011;3647;48.792;9.802;2023-04-01T20:26:59;1.60;;;1.50;;
7211;SDS011;3647;48.792;9.802;2023-04-01T20:29:39;1.60;;;1.50;;
7211;SDS011;3647;48.792;9.802;2023-04-01T20:32:28;1.70;;;1.50;;
7211;SDS011;3647;48.792;9.802;2023-04-01T20:35:24;3.60;;;1.80;;
7211;SDS011;3647;48.792;9.802;2023-04-01T20:38:04;2.13;;;1.93;;
7211;SDS011;3647;48.792;9.802;2023-04-01T20:40:50;3.23;;;2.07;;
7211;SDS011;3647;48.792;9.802;2023-04-01T20:46:19;3.07;;;1.80;;
7211;SDS011;3647;48.792;9.802;2023-04-01T20:49:01;2.73;;;1.40;;
7211;SDS011;3647;48.792;9.802;2023-04-01T20:51:46;2.13;;;2.00;;
7211;SDS011;3647;48.792;9.802;2023-04-01T20:54:26;2.50;;;2.30;;
7211;SDS011;3647;48.792;9.802;2023-04-01T20:57:04;5.63;;;2.80;;
7211;SDS011;3647;48.792;9.802;2023-04-01T20:59:39;4.60;;;2.90;;
7211;SDS011;3647;48.792;9.802;2023-04-01T21:02:36;6.17;;;3.30;;
7211;SDS011;3647;48.792;9.802;2023-04-01T21:05:31;4.10;;;2.40;;
7211;SDS011;3647;48.792;9.802;2023-04-01T21:08:21;3.03;;;2.40;;
7211;SDS011;3647;48.792;9.802;2023-04-01T21:10:57;2.53;;;2.20;;
7211;SDS011;3647;48.792;9.802;2023-04-01T21:13:33;4.47;;;2.57;;
7211;SDS011;3647;48.792;9.802;2023-04-01T21:16:15;3.67;;;2.13;;
7211;SDS011;3647;48.792;9.802;2023-04-01T21:19:00;2.17;;;1.97;;
7211;SDS011;3647;48.792;9.802;2023-04-01T21:21:38;2.97;;;1.93;;
